Time;durP1;ratioP1;P1;durP2;ratioP2;P2;SDS_P1;SDS_P2;PMS_P1;PMS_P2;Temp;Humidity;BMP_temperature;BMP_pressure;BME280_temperature;BME280_humidity;BME280_pressure;Samples;Min_cycle;Max_cycle;Signal;HPM_P1;HPM_P2
2022/01/20 00:34:31;;;;;;;2.10;2.00;;;;;;;18.30;44.41;97826.34;6065359;23;20153;-89
2022/01/20 00:37:17;;;;;;;2.03;1.90;;;;;;;18.31;43.99;97834.06;6020586;23;20167;-89
2022/01/20 00:39:44;;;;;;;2.10;2.00;;;;;;;18.54;44.07;97871.66;6020961;23;20221;-89
2022/01/20 00:42:10;;;;;;;1.90;1.80;;;;;;;18.67;44.33;97891.78;5988997;23;20177;-89
2022/01/20 00:44:37;;;;;;;1.90;1.80;;;;;;;18.30;44.19;97823.81;5965668;23;20181;-89
2022/01/20 00:47:06;;;;;;;2.10;2.00;;;;;;;18.71;43.94;97893.66;5966030;23;20184;-88
2022/01/20 00:49:33;;;;;;;1.90;1.80;;;;;;;18.64;43.88;97885.66;5989008;23;20546;-90
2022/01/20 00:52:00;;;;;;;1.93;1.83;;;;;;;18.27;44.02;97813.50;5988954;23;20220;-87
2022/01/20 00:54:26;;;;;;;1.80;1.70;;;;;;;18.51;43.98;97857.91;6011532;23;20201;-88
2022/01/20 00:56:53;;;;;;;1.80;1.70;;;;;;;18.44;44.25;97854.22;5965711;23;20173;-88
2022/01/20 00:59:19;;;;;;;1.73;1.63;;;;;;;18.56;44.31;97869.19;5988956;23;20220;-89
2022/01/20 01:01:46;;;;;;;2.10;2.00;;;;;;;18.43;43.94;97847.38;5965888;23;20243;-89
2022/01/20 01:04:14;;;;;;;1.73;1.63;;;;;;;18.82;44.10;97917.06;5966321;23;20229;-87
2022/01/20 01:07:41;;;;;;;1.60;1.50;;;;;;;18.70;43.86;97898.69;5988876;23;20255;-89
2022/01/20 01:09:27;;;;;;;2.10;2.00;;;;;;;18.71;44.04;97900.44;5995854;23;20205;-88
2022/01/20 01:11:59;;;;;;;1.67;1.57;;;;;;;18.62;44.29;97879.66;5989128;23;20259;-88
2022/01/20 01:14:28;;;;;;;1.80;1.70;;;;;;;18.58;44.73;97876.09;5990400;23;20169;-88
2022/01/20 01:24:40;;;;;;;1.77;1.67;;;;;;;18.58;44.23;97886.28;5988567;23;20242;-89
2022/01/20 01:27:07;;;;;;;1.80;1.70;;;;;;;18.57;44.35;97876.03;5965960;23;20456;-88
2022/01/20 01:32:24;;;;;;;2.00;1.90;;;;;;;18.59;44.36;97888.00;5995441;23;20188;-89
2022/01/20 02:20:38;;;;;;;1.80;1.70;;;;;;;18.65;44.50;97900.16;6107410;23;20193;-89
2022/01/20 02:23:07;;;;;;;2.07;1.90;;;;;;;18.61;44.43;97890.63;6103804;23;20233;-89
2022/01/20 02:25:35;;;;;;;1.60;1.50;;;;;;;18.83;44.16;97931.56;6101798;23;20205;-88
2022/01/20 02:28:06;;;;;;;1.60;1.50;;;;;;;18.75;44.23;97917.59;6127428;23;20546;-88
2022/01/20 02:30:33;;;;;;;1.90;1.80;;;;;;;18.76;44.19;97916.78;6102306;23;20198;-90
2022/01/20 02:33:07;;;;;;;1.70;1.60;;;;;;;18.35;44.37;97838.47;6078803;23;20220;-88
2022/01/20 02:35:36;;;;;;;1.67;1.57;;;;;;;18.68;44.43;97879.94;6102936;23;20257;-88
2022/01/20 02:38:51;;;;;;;1.70;1.60;;;;;;;18.61;44.00;97855.88;6078531;23;20225;-89
2022/01/20 02:46:23;;;;;;;1.60;1.50;;;;;;;18.47;43.74;97817.88;6110490;23;20174;-89
2022/01/20 02:48:49;;;;;;;1.90;1.70;;;;;;;18.19;44.34;97792.78;6078746;23;20175;-89
2022/01/20 02:51:16;;;;;;;1.60;1.50;;;;;;;18.69;44.14;97867.28;6078857;23;20201;-89
2022/01/20 02:53:43;;;;;;;1.80;1.70;;;;;;;18.43;44.17;97821.06;6078807;23;20225;-89
2022/01/20 02:56:09;;;;;;;1.67;1.57;;;;;;;18.62;44.47;97857.59;6078705;23;20257;-88
2022/01/20 02:58:36;;;;;;;1.60;1.50;;;;;;;18.34;44.24;97812.97;6079091;23;20198;-89
2022/01/20 03:01:02;;;;;;;1.60;1.50;;;;;;;18.57;44.07;97858.19;6102103;23;20252;-89
2022/01/20 03:03:29;;;;;;;1.70;1.60;;;;;;;18.20;44.35;97799.59;6078637;23;20202;-89
2022/01/20 03:05:56;;;;;;;1.90;1.77;;;;;;;18.73;44.20;97888.63;6102251;23;20221;-88
2022/01/20 03:08:22;;;;;;;1.70;1.60;;;;;;;18.61;44.42;97867.72;6102374;23;20209;-89
2022/01/20 03:10:49;;;;;;;1.70;1.60;;;;;;;18.67;44.57;97886.69;6102241;23;20205;-89
2022/01/20 03:13:16;;;;;;;1.60;1.50;;;;;;;18.72;44.53;97900.53;6078328;23;20182;-88
2022/01/20 03:15:43;;;;;;;1.70;1.60;;;;;;;18.39;44.44;97837.00;6080175;23;20197;-89
2022/01/20 03:18:09;;;;;;;1.70;1.60;;;;;;;18.63;44.38;97886.47;6080859;23;20170;-90
2022/01/20 03:20:36;;;;;;;1.83;1.73;;;;;;;18.64;44.38;97890.75;6079842;23;20197;-89
2022/01/20 03:23:03;;;;;;;1.67;1.57;;;;;;;18.51;44.51;97868.09;6080076;23;20190;-89
2022/01/20 03:25:29;;;;;;;1.67;1.57;;;;;;;18.41;44.55;97848.97;6080211;23;20174;-89
2022/01/20 03:27:56;;;;;;;1.77;1.67;;;;;;;18.32;44.58;97843.41;6104486;23;20209;-89
2022/01/20 03:30:23;;;;;;;1.70;1.60;;;;;;;18.51;44.51;97874.06;6080041;23;20237;-89
2022/01/20 03:32:50;;;;;;;1.80;1.70;;;;;;;18.20;44.55;97819.97;6104318;23;20175;-89
2022/01/20 04:07:33;;;;;;;1.80;1.70;;;;;;;16.07;44.52;97475.97;6153888;23;20176;-89
2022/01/20 04:09:59;;;;;;;1.60;1.50;;;;;;;17.61;44.41;97723.06;6101456;23;20204;-88
2022/01/20 04:12:26;;;;;;;1.63;1.53;;;;;;;18.35;44.34;97846.13;6050518;23;20182;-89
2022/01/20 04:14:53;;;;;;;1.80;1.70;;;;;;;18.59;44.29;97885.47;6050929;23;20566;-89
2022/01/20 04:17:21;;;;;;;1.80;1.70;;;;;;;18.52;44.50;97880.00;6051062;23;20221;-89
2022/01/20 04:19:47;;;;;;;1.73;1.63;;;;;;;18.31;44.61;97849.31;6075086;23;20183;-89
2022/01/20 04:22:17;;;;;;;1.63;1.53;;;;;;;18.21;44.26;97829.34;6051282;23;20230;-89
2022/01/20 04:24:47;;;;;;;1.57;1.47;;;;;;;18.60;44.58;97889.78;6099122;23;20183;-90
2022/01/20 04:27:14;;;;;;;1.70;1.60;;;;;;;18.19;44.43;97808.06;6050894;23;20198;-89
2022/01/20 04:29:40;;;;;;;1.80;1.70;;;;;;;18.64;44.08;97880.56;6050917;23;20175;-89
2022/01/20 04:32:07;;;;;;;1.57;1.47;;;;;;;18.20;44.71;97803.03;6050946;23;20195;-88
2022/01/20 04:34:34;;;;;;;1.60;1.50;;;;;;;18.57;44.32;97861.63;6050511;23;20238;-89
2022/01/20 04:37:04;;;;;;;1.60;1.50;;;;;;;18.62;44.48;97865.22;6074532;23;20635;-89
2022/01/20 04:39:33;;;;;;;1.80;1.70;;;;;;;18.44;44.28;97836.38;6052347;23;20638;-88
2022/01/20 04:42:00;;;;;;;1.30;1.30;;;;;;;17.95;44.27;97746.72;6051331;23;20210;-88
2022/01/20 04:44:37;;;;;;;1.80;1.70;;;;;;;18.63;44.32;97876.31;6098046;23;20226;-89
2022/01/20 04:58:05;;;;;;;1.60;1.50;;;;;;;18.61;44.31;97871.13;6082256;23;20159;-89
2022/01/20 05:00:31;;;;;;;1.80;1.70;;;;;;;18.50;44.39;97849.41;6049936;23;20229;-89
2022/01/20 05:02:58;;;;;;;1.60;1.50;;;;;;;18.61;44.58;97878.78;6050369;23;20581;-89
2022/01/20 05:05:30;;;;;;;1.60;1.50;;;;;;;18.41;44.59;97835.41;6075265;23;20698;-89
2022/01/20 05:07:56;;;;;;;1.70;1.60;;;;;;;18.57;44.34;97871.81;6074211;23;20684;-89
2022/01/20 05:10:23;;;;;;;1.70;1.60;;;;;;;18.75;44.72;97904.88;6097961;23;20511;-89
2022/01/20 05:15:20;;;;;;;1.57;1.47;;;;;;;18.51;44.52;97857.91;6074814;23;20211;-89
2022/01/20 05:17:46;;;;;;;1.50;1.40;;;;;;;18.65;44.47;97879.81;6049406;23;20647;-88
2022/01/20 05:20:13;;;;;;;1.50;1.40;;;;;;;18.53;44.53;97867.34;6073474;23;20195;-89
2022/01/20 05:22:43;;;;;;;2.07;1.50;;;;;;;18.47;44.77;97856.03;6051889;23;20170;-89
2022/01/20 05:25:10;;;;;;;1.60;1.50;;;;;;;18.12;44.38;97814.50;6049521;23;20191;-89
2022/01/20 05:27:37;;;;;;;1.80;1.70;;;;;;;18.44;44.35;97868.63;6049036;23;20198;-89
2022/01/20 05:30:04;;;;;;;1.67;1.57;;;;;;;18.65;44.73;97892.53;6050170;23;20206;-88
2022/01/20 05:32:31;;;;;;;1.70;1.60;;;;;;;18.43;44.75;97851.59;6097837;23;20550;-88
2022/01/20 05:34:57;;;;;;;1.60;1.50;;;;;;;18.53;44.53;97876.69;6049572;23;20167;-89
2022/01/20 05:37:24;;;;;;;1.70;1.60;;;;;;;18.55;44.63;97882.69;6049814;23;20179;-89
2022/01/20 05:39:50;;;;;;;1.50;1.40;;;;;;;18.08;44.55;97801.56;6049982;23;20564;-89
2022/01/20 05:42:17;;;;;;;1.53;1.43;;;;;;;18.46;44.54;97872.97;6050644;23;20175;-89
2022/01/20 05:44:45;;;;;;;1.70;1.60;;;;;;;18.36;45.02;97857.16;6049252;23;20230;-88
2022/01/20 05:47:14;;;;;;;1.60;1.50;;;;;;;18.62;44.85;97894.94;6074106;23;20177;-89
2022/01/20 05:49:40;;;;;;;1.47;1.37;;;;;;;18.05;44.70;97794.69;6050994;23;20230;-89
2022/01/20 05:52:07;;;;;;;1.60;1.50;;;;;;;18.55;45.01;97885.25;6075040;23;20249;-88
2022/01/20 05:54:34;;;;;;;1.50;1.40;;;;;;;18.07;44.43;97789.69;6072662;23;20619;-87
2022/01/20 05:57:01;;;;;;;1.40;1.30;;;;;;;18.62;44.82;97884.75;6049767;23;20179;-90
2022/01/20 05:59:28;;;;;;;1.40;1.30;;;;;;;18.15;44.84;97809.56;6049949;23;20524;-89
2022/01/20 06:01:58;;;;;;;1.70;1.60;;;;;;;18.38;44.53;97861.56;6049395;23;20217;-89
2022/01/20 06:04:29;;;;;;;1.80;1.70;;;;;;;18.71;44.64;97903.00;6076422;23;20658;-89
2022/01/20 06:06:57;;;;;;;1.70;1.60;;;;;;;18.21;44.68;97809.84;6068620;23;20205;-88
2022/01/20 06:09:23;;;;;;;1.63;1.53;;;;;;;18.30;44.58;97841.63;6090649;23;20635;-88
2022/01/20 06:11:50;;;;;;;1.80;1.70;;;;;;;18.49;44.47;97878.22;6091769;23;20222;-88
2022/01/20 06:14:16;;;;;;;1.70;1.60;;;;;;;18.57;44.61;97881.09;6067170;23;20663;-88
2022/01/20 06:16:43;;;;;;;1.40;1.30;;;;;;;18.44;44.89;97851.66;6069015;23;20192;-89
2022/01/20 06:19:10;;;;;;;1.50;1.40;;;;;;;17.96;44.81;97771.38;6091983;23;20650;-89
2022/01/20 06:21:38;;;;;;;1.50;1.40;;;;;;;18.21;44.44;97814.09;6091392;23;20246;-89
2022/01/20 06:24:04;;;;;;;1.60;1.50;;;;;;;18.20;44.85;97814.88;6068215;23;20195;-89
2022/01/20 06:26:31;;;;;;;1.50;1.40;;;;;;;18.31;44.68;97830.63;6091958;23;20164;-89
2022/01/20 06:28:58;;;;;;;1.60;1.50;;;;;;;18.26;44.37;97820.25;6068500;23;20203;-89
2022/01/20 06:31:24;;;;;;;1.50;1.40;;;;;;;18.55;44.74;97873.41;6067362;23;20231;-90
2022/01/20 06:33:51;;;;;;;1.70;1.60;;;;;;;18.26;44.50;97822.78;6067024;23;20168;-89
2022/01/20 06:36:18;;;;;;;1.50;1.40;;;;;;;18.37;45.06;97849.66;6091147;23;20259;-93
2022/01/20 07:16:17;;;;;;;1.40;1.30;;;;;;;16.87;44.59;97588.19;6153484;23;20688;-90
2022/01/20 07:18:44;;;;;;;1.67;1.57;;;;;;;17.99;44.52;97817.28;6080926;23;20207;-90
2022/01/20 07:21:10;;;;;;;1.53;1.20;;;;;;;18.57;44.68;97924.38;6099449;23;20202;-90
2022/01/20 07:23:37;;;;;;;1.37;1.27;;;;;;;17.36;44.63;97696.38;6075406;23;20187;-90
2022/01/20 07:26:04;;;;;;;3.97;1.40;;;;;;;18.44;44.62;97871.16;6074282;23;20528;-92
2022/01/20 07:28:30;;;;;;;1.93;1.50;;;;;;;18.37;44.82;97861.44;6099518;23;20190;-89
2022/01/20 07:30:57;;;;;;;1.60;1.50;;;;;;;18.62;44.27;97887.28;6073968;23;20693;-89
2022/01/20 07:33:24;;;;;;;1.70;1.60;;;;;;;18.60;44.67;97881.25;6074620;23;20156;-90
2022/01/20 07:35:51;;;;;;;1.83;1.30;;;;;;;18.67;44.61;97899.41;6074349;23;20214;-90
2022/01/20 07:38:20;;;;;;;1.60;1.50;;;;;;;18.65;44.69;97895.06;6075074;23;20254;-89
2022/01/20 07:40:46;;;;;;;1.77;1.67;;;;;;;18.35;44.47;97838.47;6074566;23;20191;-91
2022/01/20 07:43:13;;;;;;;2.10;1.53;;;;;;;18.55;44.56;97890.34;6075420;23;20174;-90
2022/01/20 07:45:40;;;;;;;3.13;1.67;;;;;;;18.04;44.37;97799.69;6099125;23;20214;-90
2022/01/20 07:48:06;;;;;;;1.50;1.40;;;;;;;18.42;44.35;97870.22;6098243;23;20206;-88
2022/01/20 07:50:33;;;;;;;1.50;1.40;;;;;;;18.54;44.30;97893.69;6074757;23;20195;-87
2022/01/20 07:53:00;;;;;;;1.67;1.40;;;;;;;17.82;44.16;97764.75;6075351;23;20179;-86
2022/01/20 07:55:26;;;;;;;1.40;1.30;;;;;;;18.45;44.20;97881.41;6074901;23;20211;-86
2022/01/20 07:57:53;;;;;;;1.90;1.67;;;;;;;18.48;44.06;97891.75;6074704;23;20175;-86
2022/01/20 08:00:20;;;;;;;2.00;1.80;;;;;;;18.59;43.49;97900.72;6122250;23;20380;-85
2022/01/20 08:02:46;;;;;;;1.97;1.87;;;;;;;18.57;43.14;97902.34;6074863;23;20222;-87
2022/01/20 08:05:13;;;;;;;3.80;2.70;;;;;;;18.66;42.56;97932.44;6098813;23;20191;-86
2022/01/20 08:07:40;;;;;;;3.10;2.50;;;;;;;18.71;42.45;97939.50;6099600;23;20183;-87
2022/01/20 08:10:07;;;;;;;3.33;2.60;;;;;;;18.51;41.91;97909.69;6075706;23;20199;-86
2022/01/20 08:36:55;;;;;;;2.50;2.30;;;;;;;17.17;43.18;97714.94;6152993;23;21158;-87
2022/01/20 08:39:44;;;;;;;2.40;2.20;;;;;;;18.36;43.26;97914.03;6080452;23;20162;-86
2022/01/20 08:42:09;;;;;;;2.63;2.30;;;;;;;18.54;43.50;97947.13;6101981;23;20194;-87
2022/01/20 08:44:36;;;;;;;2.20;2.00;;;;;;;18.11;43.41;97870.41;6073266;23;20279;-90
2022/01/20 08:47:03;;;;;;;2.03;1.93;;;;;;;18.59;43.78;97949.09;6097712;23;20175;-87
2022/01/20 08:49:30;;;;;;;2.30;2.10;;;;;;;18.44;43.51;97929.69;6097893;23;20198;-87
2022/01/20 08:51:57;;;;;;;2.40;2.20;;;;;;;18.66;43.51;97968.09;6097840;23;20607;-86
2022/01/20 08:54:24;;;;;;;1.97;1.80;;;;;;;18.54;43.55;97950.56;6073524;23;20159;-87
2022/01/20 08:56:52;;;;;;;2.00;1.90;;;;;;;18.53;43.86;97956.44;6097676;23;20619;-88
2022/01/20 08:59:19;;;;;;;2.20;2.00;;;;;;;18.44;43.63;97958.53;6073746;23;20210;-87
2022/01/20 09:01:46;;;;;;;2.00;1.90;;;;;;;18.58;43.54;97969.38;6074446;23;20218;-88
2022/01/20 09:25:42;;;;;;;2.37;2.00;;;;;;;18.67;43.28;97982.53;6151913;23;20229;-86
2022/01/20 09:28:09;;;;;;;2.07;1.90;;;;;;;18.78;43.33;97999.22;6078617;23;20175;-86
2022/01/20 09:30:38;;;;;;;2.57;1.93;;;;;;;18.51;43.45;97940.25;6078401;23;20230;-85
2022/01/20 09:35:34;;;;;;;1.93;1.70;;;;;;;18.23;43.63;97906.59;6102505;23;20171;-86
2022/01/20 09:38:00;;;;;;;2.33;1.97;;;;;;;18.57;43.65;97958.34;6078145;23;20202;-86
2022/01/20 09:40:29;;;;;;;1.80;1.70;;;;;;;18.52;43.65;97951.28;6079047;23;20198;-85
2022/01/20 09:42:55;;;;;;;1.73;1.60;;;;;;;18.61;43.51;97979.72;6102967;23;20162;-86
2022/01/20 09:45:22;;;;;;;3.37;1.63;;;;;;;18.75;43.46;97994.88;6078229;23;20236;-86
2022/01/20 09:47:49;;;;;;;1.93;1.73;;;;;;;18.72;43.79;98002.34;6079156;23;20597;-85
2022/01/20 09:50:19;;;;;;;2.47;1.70;;;;;;;18.57;43.75;97972.75;6078800;23;20248;-85
2022/01/20 09:52:46;;;;;;;1.60;1.50;;;;;;;18.66;43.52;97978.25;6103461;23;20178;-84
2022/01/20 09:55:13;;;;;;;1.57;1.47;;;;;;;18.80;43.47;98005.25;6078035;23;20202;-85
2022/01/20 09:57:40;;;;;;;1.77;1.60;;;;;;;18.36;43.79;97931.84;6101786;23;20504;-85
2022/01/20 10:00:11;;;;;;;1.67;1.50;;;;;;;18.61;43.59;97962.78;6078269;23;20202;-85
2022/01/20 10:02:50;;;;;;;1.60;1.50;;;;;;;18.64;43.81;97967.13;6126415;23;20614;-85
2022/01/20 10:05:29;;;;;;;1.73;1.63;;;;;;;18.63;43.67;97962.84;6101748;23;20217;-85
2022/01/20 10:08:16;;;;;;;1.83;1.67;;;;;;;18.65;43.88;97959.56;6127216;23;20220;-85
2022/01/20 10:10:54;;;;;;;1.60;1.50;;;;;;;18.68;43.44;97980.06;6100782;23;20206;-85
2022/01/20 10:13:29;;;;;;;3.67;1.90;;;;;;;18.60;42.63;97977.97;6101616;23;20602;-86
2022/01/20 10:16:01;;;;;;;2.30;1.83;;;;;;;18.61;42.10;97993.31;6102960;23;20157;-85
2022/01/20 10:18:28;;;;;;;3.17;2.10;;;;;;;18.52;41.99;97985.25;6103706;23;20181;-85
2022/01/20 10:20:57;;;;;;;3.17;2.10;;;;;;;18.53;42.23;97992.06;6077183;23;20601;-86
2022/01/20 10:23:47;;;;;;;2.30;1.77;;;;;;;18.43;42.93;97974.63;6128050;23;20174;-85
2022/01/20 10:26:23;;;;;;;2.17;1.80;;;;;;;18.73;43.06;98016.81;6107874;23;20182;-85
2022/01/20 10:29:00;;;;;;;2.13;1.60;;;;;;;18.73;43.22;98010.84;6104688;23;20634;-86
2022/01/20 10:31:31;;;;;;;2.07;1.87;;;;;;;18.71;43.17;98004.81;6128694;23;20189;-85
2022/01/20 10:33:58;;;;;;;2.90;1.83;;;;;;;18.63;43.62;97989.19;6154610;23;20840;-85
2022/01/20 10:36:24;;;;;;;2.17;1.93;;;;;;;18.60;43.75;97981.41;6105074;23;20179;-85
2022/01/20 10:38:56;;;;;;;2.13;1.67;;;;;;;18.46;43.88;97961.16;6080503;23;20638;-85
2022/01/20 10:41:34;;;;;;;2.43;1.83;;;;;;;18.40;43.60;97961.75;6081052;23;20230;-84
2022/01/20 10:44:14;;;;;;;1.90;1.73;;;;;;;18.46;43.92;97966.25;6080424;23;20186;-85
2022/01/20 10:46:47;;;;;;;1.80;1.60;;;;;;;18.53;43.82;97975.94;6082030;23;20695;-85
2022/01/20 10:49:14;;;;;;;2.53;1.60;;;;;;;18.69;44.03;98001.31;6081059;23;20162;-85
2022/01/20 10:51:41;;;;;;;3.90;1.77;;;;;;;18.46;44.22;97959.50;6104266;23;20210;-85
2022/01/20 10:54:13;;;;;;;2.60;1.90;;;;;;;18.45;44.22;97950.13;6129224;23;20646;-86
2022/01/20 10:56:52;;;;;;;2.03;1.67;;;;;;;18.42;44.03;97942.34;6082796;23;20213;-86
2022/01/20 10:59:19;;;;;;;2.20;1.50;;;;;;;18.61;44.21;97977.16;6105829;23;20198;-87
2022/01/20 11:02:06;;;;;;;2.07;1.50;;;;;;;18.68;44.29;97980.06;6081560;23;20237;-88
2022/01/20 11:04:33;;;;;;;1.70;1.60;;;;;;;18.33;43.89;97918.97;6105499;23;20178;-89
2022/01/20 11:07:02;;;;;;;1.83;1.50;;;;;;;18.69;43.94;97992.03;6081892;23;20662;-87
2022/01/20 11:09:32;;;;;;;1.80;1.60;;;;;;;18.44;43.86;97945.81;6082934;23;20208;-87
2022/01/20 11:12:00;;;;;;;1.90;1.70;;;;;;;17.96;43.79;97854.41;6082623;23;20221;-88
2022/01/20 11:14:26;;;;;;;1.60;1.50;;;;;;;18.59;43.82;97966.06;6081813;23;20181;-87
2022/01/20 11:16:53;;;;;;;1.60;1.50;;;;;;;18.41;43.75;97927.84;6105773;23;20595;-87
2022/01/20 11:19:20;;;;;;;1.43;1.30;;;;;;;18.42;43.36;97932.16;6081235;23;20206;-86
2022/01/20 11:21:47;;;;;;;2.07;1.60;;;;;;;18.18;44.07;97888.56;6104814;23;20226;-87
2022/01/20 11:24:22;;;;;;;1.73;1.40;;;;;;;18.43;43.92;97925.38;6100110;23;20627;-87
2022/01/20 11:26:56;;;;;;;1.43;1.33;;;;;;;18.46;44.07;97928.97;6076812;23;20198;-87
2022/01/20 11:29:23;;;;;;;2.07;1.47;;;;;;;18.09;44.00;97860.16;6077069;23;20479;-86
2022/01/20 11:31:50;;;;;;;2.00;1.50;;;;;;;18.45;44.32;97928.88;6076457;23;20195;-86
2022/01/20 11:34:37;;;;;;;1.70;1.60;;;;;;;18.60;44.02;97944.88;6083679;23;20167;-87
2022/01/20 11:37:08;;;;;;;1.70;1.60;;;;;;;18.60;43.93;97935.59;6099587;23;20176;-87
2022/01/20 11:39:46;;;;;;;1.80;1.70;;;;;;;18.67;44.00;97945.25;6102365;23;20234;-86
2022/01/20 11:42:24;;;;;;;2.50;1.77;;;;;;;18.42;44.00;97899.09;6123633;23;20168;-85
2022/01/20 11:44:51;;;;;;;2.67;1.67;;;;;;;18.35;44.38;97885.97;6076602;23;20226;-86
2022/01/20 11:47:30;;;;;;;1.60;1.50;;;;;;;18.10;44.42;97844.09;6074830;23;20175;-87
2022/01/20 11:49:56;;;;;;;1.73;1.63;;;;;;;18.66;44.15;97937.53;6099196;23;20252;-86
2022/01/20 11:52:26;;;;;;;2.07;1.70;;;;;;;16.03;44.01;97494.38;6116741;23;20210;-82
2022/01/20 11:54:53;;;;;;;1.43;1.33;;;;;;;17.30;44.05;97706.25;6104255;23;20174;-83
2022/01/20 11:57:19;;;;;;;2.93;2.10;;;;;;;18.66;44.15;97932.44;6104507;23;20178;-82
2022/01/20 11:59:53;;;;;;;3.70;2.10;;;;;;;18.11;44.31;97837.31;6128276;23;20170;-84
2022/01/20 12:02:33;;;;;;;2.27;1.63;;;;;;;18.26;43.68;97855.84;6117630;23;20670;-83
2022/01/20 12:05:01;;;;;;;3.17;1.93;;;;;;;18.18;43.96;97830.06;6099493;23;20226;-84
2022/01/20 12:07:29;;;;;;;2.67;1.67;;;;;;;17.05;44.21;97637.31;6076703;23;20695;-87
2022/01/20 12:10:07;;;;;;;2.03;1.77;;;;;;;17.53;44.00;97744.69;6077810;23;20171;-84
2022/01/20 12:12:34;;;;;;;4.10;1.67;;;;;;;17.15;44.32;97660.69;6077188;23;20265;-86
2022/01/20 12:15:33;;;;;;;2.40;1.77;;;;;;;18.48;44.05;97893.41;6075827;23;20187;-85
2022/01/20 12:18:00;;;;;;;2.00;1.80;;;;;;;18.40;44.20;97913.41;6037018;23;20175;-88
2022/01/20 12:20:27;;;;;;;1.67;1.53;;;;;;;17.45;44.44;97705.38;6076163;23;20515;-86
2022/01/20 12:22:53;;;;;;;1.73;1.63;;;;;;;17.66;44.14;97772.47;6078928;23;20182;-87
2022/01/20 12:46:49;;;;;;;2.30;1.70;;;;;;;12.89;44.45;96985.53;6143045;23;20208;-85
2022/01/20 12:49:17;;;;;;;2.17;1.93;;;;;;;17.50;44.14;97701.34;6103671;23;20518;-86
2022/01/20 12:51:53;;;;;;;1.77;1.60;;;;;;;17.70;44.37;97778.53;6074377;23;20210;-86
2022/01/20 12:54:27;;;;;;;2.83;1.60;;;;;;;16.79;44.05;97586.94;6074172;23;20611;-84
2022/01/20 12:56:57;;;;;;;2.00;1.53;;;;;;;17.49;44.11;97708.91;6098558;23;20217;-85
2022/01/20 12:59:29;;;;;;;2.33;1.80;;;;;;;17.98;44.05;97785.03;6075334;23;20179;-84
2022/01/20 13:02:07;;;;;;;2.63;1.90;;;;;;;17.57;43.87;97735.56;6075847;23;20269;-85
2022/01/20 13:04:35;;;;;;;2.63;1.80;;;;;;;16.85;44.09;97610.97;6074533;23;20615;-85
2022/01/20 13:07:03;;;;;;;2.33;1.80;;;;;;;16.85;44.18;97592.31;6074358;23;20178;-85
2022/01/20 13:10:04;;;;;;;4.47;2.10;;;;;;;18.27;43.93;97825.41;6075015;23;20179;-86
2022/01/20 13:12:41;;;;;;;3.00;1.60;;;;;;;18.58;43.91;97887.94;6074209;23;20265;-85
2022/01/20 13:15:16;;;;;;;2.43;2.00;;;;;;;18.71;43.32;97918.28;6070361;23;20699;-85
2022/01/20 13:17:43;;;;;;;2.53;1.80;;;;;;;18.15;42.64;97846.88;6120225;23;20186;-86
2022/01/20 13:20:19;;;;;;;2.47;2.13;;;;;;;18.62;41.51;97935.66;6095804;23;20171;-85
2022/01/20 13:22:58;;;;;;;2.53;1.77;;;;;;;18.19;39.64;97908.13;6094695;23;20388;-85
2022/01/20 13:25:27;;;;;;;3.30;2.20;;;;;;;18.30;39.40;97908.66;6070200;23;20507;-86
2022/01/20 13:27:54;;;;;;;2.63;1.80;;;;;;;17.42;38.90;97794.09;6070118;23;20577;-86
2022/01/20 13:30:47;;;;;;;4.60;1.70;;;;;;;18.37;38.62;97941.25;6093775;23;20263;-85
2022/01/20 13:33:22;;;;;;;2.00;1.40;;;;;;;17.80;38.78;97859.56;6062314;23;20182;-84
2022/01/20 13:35:58;;;;;;;2.70;1.73;;;;;;;17.97;39.07;97895.16;6070185;23;20209;-85
2022/01/20 13:38:38;;;;;;;2.33;1.43;;;;;;;17.92;39.09;97904.22;6071956;23;20162;-86
2022/01/20 13:41:11;;;;;;;1.60;1.50;;;;;;;15.98;39.57;97614.91;6095010;23;20530;-84
2022/01/20 13:46:42;;;;;;;1.90;1.50;;;;;;;17.50;39.73;97853.81;6089547;23;20203;-86
2022/01/20 13:49:17;;;;;;;1.60;1.50;;;;;;;16.16;39.76;97628.53;6066652;23;20179;-85
2022/01/20 13:51:58;;;;;;;2.07;1.60;;;;;;;16.56;39.66;97714.31;6089848;23;20195;-85
2022/01/20 13:54:40;;;;;;;2.83;1.70;;;;;;;15.90;39.21;97606.03;6065474;23;20186;-85
2022/01/20 13:57:38;;;;;;;3.57;2.20;;;;;;;12.00;39.20;97027.50;6109823;23;20198;-86
2022/01/20 14:00:10;;;;;;;3.13;2.17;;;;;;;11.55;39.39;96890.53;6066575;23;20179;-85
2022/01/20 14:02:48;;;;;;;1.80;1.70;;;;;;;17.48;39.27;97898.59;6090220;23;20199;-85
2022/01/20 14:05:24;;;;;;;3.53;2.00;;;;;;;11.73;39.25;96894.13;6066645;23;20218;-85
2022/01/20 14:07:51;;;;;;;5.73;2.10;;;;;;;9.95;38.55;96608.84;6089716;23;20183;-84
2022/01/20 14:10:27;;;;;;;5.40;2.27;;;;;;;10.88;38.15;96856.44;6067242;23;20568;-84
2022/01/20 14:13:00;;;;;;;3.07;2.07;;;;;;;15.89;38.84;97671.84;6089781;23;20190;-86
2022/01/20 14:15:37;;;;;;;3.53;1.73;;;;;;;11.23;38.61;96845.03;6067111;23;20676;-85
2022/01/20 14:18:09;;;;;;;3.37;1.90;;;;;;;15.42;36.99;97648.16;6089493;23;20658;-85
2022/01/20 14:20:46;;;;;;;2.23;1.80;;;;;;;13.53;37.70;97332.25;6089603;23;20632;-85
2022/01/20 14:23:20;;;;;;;3.50;2.23;;;;;;;12.96;38.40;97157.34;6064393;23;20234;-86
2022/01/20 14:25:53;;;;;;;3.03;2.23;;;;;;;13.61;39.02;97270.41;6066993;23;20195;-86
2022/01/20 14:28:23;;;;;;;2.53;2.00;;;;;;;13.21;38.15;97236.16;6067642;23;20179;-84
2022/01/20 14:30:53;;;;;;;2.97;1.90;;;;;;;12.29;38.25;97087.94;6090714;23;20195;-85
2022/01/20 14:33:24;;;;;;;3.07;2.00;;;;;;;15.14;38.67;97604.34;6090401;23;20182;-85
2022/01/20 14:35:54;;;;;;;4.67;2.53;;;;;;;16.39;38.39;97734.56;6066957;23;20168;-86
2022/01/20 14:38:24;;;;;;;2.93;1.93;;;;;;;9.38;38.26;96535.16;6067290;23;20187;-86
2022/01/20 14:40:57;;;;;;;3.30;1.90;;;;;;;10.77;38.24;96788.69;6091145;23;20528;-86
2022/01/20 14:43:37;;;;;;;2.97;1.97;;;;;;;12.98;37.52;97150.72;6090469;23;20180;-85
2022/01/20 14:46:08;;;;;;;3.27;1.97;;;;;;;11.69;38.65;96981.16;6067372;23;20195;-84
2022/01/20 14:48:42;;;;;;;3.10;1.83;;;;;;;11.22;38.41;96904.50;6067839;23;20187;-85
2022/01/20 14:51:12;;;;;;;3.37;1.97;;;;;;;10.42;38.48;96829.31;6068703;23;20191;-85
2022/01/20 14:53:39;;;;;;;3.93;2.00;;;;;;;16.55;38.66;97888.47;6067560;23;20175;-85
2022/01/20 14:56:07;;;;;;;3.67;2.17;;;;;;;13.01;38.29;97154.31;6068043;23;20574;-86
2022/01/20 14:58:41;;;;;;;4.10;2.13;;;;;;;11.05;38.30;96932.84;6091533;23;20584;-85
2022/01/20 15:01:13;;;;;;;5.70;2.30;;;;;;;10.95;37.91;96888.69;6068931;23;20192;-84
2022/01/20 15:03:41;;;;;;;3.70;2.30;;;;;;;12.44;37.95;97113.16;6092125;23;20203;-83
2022/01/20 15:06:08;;;;;;;3.53;2.33;;;;;;;13.09;37.44;97284.28;6067492;23;20239;-85
2022/01/20 15:08:42;;;;;;;4.67;2.40;;;;;;;13.45;37.88;97247.63;6092763;23;20175;-83
2022/01/20 15:11:13;;;;;;;6.23;2.33;;;;;;;13.68;38.02;97349.09;6093981;23;20511;-86
2022/01/20 15:13:43;;;;;;;3.53;2.17;;;;;;;13.68;38.14;97298.59;6070897;23;20186;-86
2022/01/20 15:16:10;;;;;;;4.47;2.33;;;;;;;9.24;37.56;96546.84;6070237;23;20227;-84
2022/01/20 15:18:40;;;;;;;4.77;1.90;;;;;;;13.65;37.94;97293.38;6070739;23;20172;-83
2022/01/20 15:21:10;;;;;;;3.03;2.00;;;;;;;16.38;37.90;97904.44;6095119;23;20538;-85
2022/01/20 15:23:44;;;;;;;2.93;2.20;;;;;;;13.57;38.00;97308.91;6070925;23;20260;-85
2022/01/20 15:26:21;;;;;;;2.77;2.23;;;;;;;12.01;37.13;97054.41;6095439;23;20271;-85
2022/01/20 15:28:52;;;;;;;4.40;2.27;;;;;;;13.67;37.64;97338.91;6070870;23;20218;-85
2022/01/20 15:31:20;;;;;;;6.77;2.23;;;;;;;14.09;36.93;97414.59;6071730;23;20198;-85
2022/01/20 15:33:51;;;;;;;3.30;2.23;;;;;;;16.28;37.67;97755.97;6071242;23;20441;-83
2022/01/20 15:36:17;;;;;;;4.37;2.40;;;;;;;12.67;37.82;97127.94;6070487;23;20476;-84
2022/01/20 15:38:44;;;;;;;5.17;2.50;;;;;;;13.46;38.03;97318.38;6071200;23;20175;-85
2022/01/20 15:41:11;;;;;;;5.00;2.40;;;;;;;13.44;37.91;97314.91;6094285;23;20247;-85
2022/01/20 15:43:38;;;;;;;3.30;2.50;;;;;;;17.58;37.50;97999.91;6069145;23;20184;-85
2022/01/20 15:46:05;;;;;;;4.47;2.50;;;;;;;17.74;37.66;98040.56;6067795;23;20203;-87
2022/01/20 15:48:34;;;;;;;3.63;2.40;;;;;;;17.36;38.10;97952.97;6067534;23;20156;-85
2022/01/20 15:51:01;;;;;;;4.60;2.80;;;;;;;17.46;38.07;97971.34;6069435;23;20219;-88
2022/01/20 15:53:27;;;;;;;3.40;2.50;;;;;;;17.31;37.91;97954.38;6093541;23;20208;-86
2022/01/20 15:55:54;;;;;;;4.07;2.30;;;;;;;17.26;37.75;97940.56;6093614;23;20211;-86
2022/01/20 15:58:20;;;;;;;4.30;2.50;;;;;;;17.57;38.00;97989.69;6070520;23;20191;-87